sensor_id;sensor_type;location;lat;lon;timestamp;temperature;humidity
7399;DHT22;3740;50.700;7.184;2023-09-30T00:00:59;15.50;99.90
7399;DHT22;3740;50.700;7.184;2023-09-30T00:03:25;15.50;99.90
7399;DHT22;3740;50.700;7.184;2023-09-30T00:05:50;15.50;99.90
7399;DHT22;3740;50.700;7.184;2023-09-30T00:08:16;15.50;99.90
7399;DHT22;3740;50.700;7.184;2023-09-30T00:10:41;15.40;99.90
7399;DHT22;3740;50.700;7.184;2023-09-30T00:13:07;15.40;99.90
7399;DHT22;3740;50.700;7.184;2023-09-30T00:15:36;15.40;99.90
7399;DHT22;3740;50.700;7.184;2023-09-30T00:18:01;15.40;99.90
7399;DHT22;3740;50.700;7.184;2023-09-30T00:20:28;15.30;99.90
7399;DHT22;3740;50.700;7.184;2023-09-30T00:22:53;15.30;99.90
7399;DHT22;3740;50.700;7.184;2023-09-30T00:25:19;15.30;99.90
7399;DHT22;3740;50.700;7.184;2023-09-30T00:27:47;15.30;99.90
7399;DHT22;3740;50.700;7.184;2023-09-30T00:30:12;15.30;99.90
7399;DHT22;3740;50.700;7.184;2023-09-30T00:32:38;15.20;99.90
7399;DHT22;3740;50.700;7.184;2023-09-30T00:35:05;15.20;99.90
7399;DHT22;3740;50.700;7.184;2023-09-30T00:37:39;15.20;99.90
7399;DHT22;3740;50.700;7.184;2023-09-30T00:40:05;15.10;99.90
7399;DHT22;3740;50.700;7.184;2023-09-30T00:42:31;15.10;99.90
7399;DHT22;3740;50.700;7.184;2023-09-30T00:44:57;15.10;99.90
7399;DHT22;3740;50.700;7.184;2023-09-30T00:47:23;15.10;99.90
7399;DHT22;3740;50.700;7.184;2023-09-30T00:49:50;15.00;99.90
7399;DHT22;3740;50.700;7.184;2023-09-30T00:52:16;15.00;99.90
7399;DHT22;3740;50.700;7.184;2023-09-30T00:54:42;15.00;99.90
7399;DHT22;3740;50.700;7.184;2023-09-30T00:57:09;15.00;99.90
7399;DHT22;3740;50.700;7.184;2023-09-30T00:59:36;15.00;99.90
7399;DHT22;3740;50.700;7.184;2023-09-30T01:02:03;15.00;99.90
7399;DHT22;3740;50.700;7.184;2023-09-30T01:04:31;15.00;99.90
7399;DHT22;3740;50.700;7.184;2023-09-30T01:06:57;14.90;99.90
7399;DHT22;3740;50.700;7.184;2023-09-30T01:09:23;14.90;99.90
7399;DHT22;3740;50.700;7.184;2023-09-30T01:11:48;14.90;99.90
7399;DHT22;3740;50.700;7.184;2023-09-30T01:14:29;14.90;99.90
7399;DHT22;3740;50.700;7.184;2023-09-30T01:16:55;14.90;99.90
7399;DHT22;3740;50.700;7.184;2023-09-30T01:19:21;14.90;99.90
7399;DHT22;3740;50.700;7.184;2023-09-30T01:21:52;14.90;99.90
7399;DHT22;3740;50.700;7.184;2023-09-30T01:24:20;14.90;99.90
7399;DHT22;3740;50.700;7.184;2023-09-30T01:26:45;14.90;99.90
7399;DHT22;3740;50.700;7.184;2023-09-30T01:29:11;14.90;99.90
7399;DHT22;3740;50.700;7.184;2023-09-30T01:31:37;14.80;99.90
7399;DHT22;3740;50.700;7.184;2023-09-30T01:34:04;14.80;99.90
7399;DHT22;3740;50.700;7.184;2023-09-30T01:36:29;14.80;99.90
7399;DHT22;3740;50.700;7.184;2023-09-30T01:38:55;14.80;99.90
7399;DHT22;3740;50.700;7.184;2023-09-30T01:41:21;14.80;99.90
7399;DHT22;3740;50.700;7.184;2023-09-30T01:43:46;14.80;99.90
7399;DHT22;3740;50.700;7.184;2023-09-30T01:46:12;14.90;99.90
7399;DHT22;3740;50.700;7.184;2023-09-30T01:48:38;14.80;99.90
7399;DHT22;3740;50.700;7.184;2023-09-30T01:51:04;14.80;99.90
7399;DHT22;3740;50.700;7.184;2023-09-30T01:53:29;14.80;99.90
7399;DHT22;3740;50.700;7.184;2023-09-30T01:55:55;14.80;99.90
7399;DHT22;3740;50.700;7.184;2023-09-30T01:58:20;14.80;99.90
7399;DHT22;3740;50.700;7.184;2023-09-30T02:00:46;14.80;99.90
7399;DHT22;3740;50.700;7.184;2023-09-30T02:03:11;14.80;99.90
7399;DHT22;3740;50.700;7.184;2023-09-30T02:05:39;14.80;99.90
7399;DHT22;3740;50.700;7.184;2023-09-30T02:08:05;14.70;99.90
7399;DHT22;3740;50.700;7.184;2023-09-30T02:10:31;14.70;99.90
7399;DHT22;3740;50.700;7.184;2023-09-30T02:12:58;14.70;99.90
7399;DHT22;3740;50.700;7.184;2023-09-30T02:15:25;14.60;99.90
7399;DHT22;3740;50.700;7.184;2023-09-30T02:17:51;14.60;99.90
7399;DHT22;3740;50.700;7.184;2023-09-30T02:20:17;14.60;99.90
7399;DHT22;3740;50.700;7.184;2023-09-30T02:22:47;14.60;99.90
7399;DHT22;3740;50.700;7.184;2023-09-30T02:25:13;14.60;99.90
7399;DHT22;3740;50.700;7.184;2023-09-30T02:27:42;14.60;99.90
7399;DHT22;3740;50.700;7.184;2023-09-30T02:30:09;14.70;99.90
7399;DHT22;3740;50.700;7.184;2023-09-30T02:32:39;14.70;99.90
7399;DHT22;3740;50.700;7.184;2023-09-30T02:35:06;14.70;99.90
7399;DHT22;3740;50.700;7.184;2023-09-30T02:37:33;14.70;99.90
7399;DHT22;3740;50.700;7.184;2023-09-30T02:40:06;14.80;99.90
7399;DHT22;3740;50.700;7.184;2023-09-30T02:42:35;14.80;99.90
7399;DHT22;3740;50.700;7.184;2023-09-30T02:45:02;14.80;99.90
7399;DHT22;3740;50.700;7.184;2023-09-30T02:47:28;14.80;99.90
7399;DHT22;3740;50.700;7.184;2023-09-30T02:49:56;14.80;99.90
7399;DHT22;3740;50.700;7.184;2023-09-30T02:52:22;14.90;99.90
7399;DHT22;3740;50.700;7.184;2023-09-30T02:54:48;14.90;99.90
7399;DHT22;3740;50.700;7.184;2023-09-30T02:57:14;14.90;99.90
7399;DHT22;3740;50.700;7.184;2023-09-30T02:59:40;14.90;99.90
7399;DHT22;3740;50.700;7.184;2023-09-30T03:02:06;15.00;99.90
7399;DHT22;3740;50.700;7.184;2023-09-30T03:04:32;15.00;99.90
7399;DHT22;3740;50.700;7.184;2023-09-30T03:06:58;14.90;99.90
7399;DHT22;3740;50.700;7.184;2023-09-30T03:09:23;14.90;99.90
7399;DHT22;3740;50.700;7.184;2023-09-30T03:11:49;14.80;99.90
7399;DHT22;3740;50.700;7.184;2023-09-30T03:14:15;14.70;99.90
7399;DHT22;3740;50.700;7.184;2023-09-30T03:16:41;14.70;99.90
7399;DHT22;3740;50.700;7.184;2023-09-30T03:19:07;14.70;99.90
7399;DHT22;3740;50.700;7.184;2023-09-30T03:21:34;14.70;99.90
7399;DHT22;3740;50.700;7.184;2023-09-30T03:24:02;14.70;99.90
7399;DHT22;3740;50.700;7.184;2023-09-30T03:26:28;14.70;99.90
7399;DHT22;3740;50.700;7.184;2023-09-30T03:28:55;14.70;99.90
7399;DHT22;3740;50.700;7.184;2023-09-30T03:31:21;14.70;99.90
7399;DHT22;3740;50.700;7.184;2023-09-30T03:33:48;14.70;99.90
7399;DHT22;3740;50.700;7.184;2023-09-30T03:36:13;14.70;99.90
7399;DHT22;3740;50.700;7.184;2023-09-30T03:38:40;14.60;99.90
7399;DHT22;3740;50.700;7.184;2023-09-30T03:41:07;14.60;99.90
7399;DHT22;3740;50.700;7.184;2023-09-30T03:43:34;14.60;99.90
7399;DHT22;3740;50.700;7.184;2023-09-30T03:46:02;16.20;99.90
7399;DHT22;3740;50.700;7.184;2023-09-30T03:48:28;14.50;99.90
7399;DHT22;3740;50.700;7.184;2023-09-30T03:50:53;14.50;99.90
7399;DHT22;3740;50.700;7.184;2023-09-30T03:53:19;14.40;99.90
7399;DHT22;3740;50.700;7.184;2023-09-30T03:55:45;14.40;99.90
7399;DHT22;3740;50.700;7.184;2023-09-30T03:58:11;14.40;99.90
7399;DHT22;3740;50.700;7.184;2023-09-30T04:00:38;14.30;99.90
7399;DHT22;3740;50.700;7.184;2023-09-30T04:03:05;14.30;99.90
7399;DHT22;3740;50.700;7.184;2023-09-30T04:05:31;14.30;99.90
7399;DHT22;3740;50.700;7.184;2023-09-30T04:08:01;14.20;99.90
7399;DHT22;3740;50.700;7.184;2023-09-30T04:10:27;14.20;99.90
7399;DHT22;3740;50.700;7.184;2023-09-30T04:12:55;14.20;99.90
7399;DHT22;3740;50.700;7.184;2023-09-30T04:15:21;14.20;99.90
7399;DHT22;3740;50.700;7.184;2023-09-30T04:17:48;14.20;99.90
7399;DHT22;3740;50.700;7.184;2023-09-30T04:20:14;14.20;99.90
7399;DHT22;3740;50.700;7.184;2023-09-30T04:22:46;14.10;99.90
7399;DHT22;3740;50.700;7.184;2023-09-30T04:25:17;14.10;99.90
7399;DHT22;3740;50.700;7.184;2023-09-30T04:27:43;14.10;99.90
7399;DHT22;3740;50.700;7.184;2023-09-30T04:30:11;14.10;99.90
7399;DHT22;3740;50.700;7.184;2023-09-30T04:32:37;14.10;99.90
7399;DHT22;3740;50.700;7.184;2023-09-30T04:35:04;14.10;99.90
7399;DHT22;3740;50.700;7.184;2023-09-30T04:37:30;14.10;99.90
7399;DHT22;3740;50.700;7.184;2023-09-30T04:39:56;14.10;99.90
7399;DHT22;3740;50.700;7.184;2023-09-30T04:42:23;14.10;99.90
7399;DHT22;3740;50.700;7.184;2023-09-30T04:44:51;14.10;99.90
7399;DHT22;3740;50.700;7.184;2023-09-30T04:47:16;14.10;99.90
7399;DHT22;3740;50.700;7.184;2023-09-30T04:49:44;14.00;99.90
7399;DHT22;3740;50.700;7.184;2023-09-30T04:52:09;14.00;99.90
7399;DHT22;3740;50.700;7.184;2023-09-30T04:54:35;14.00;99.90
7399;DHT22;3740;50.700;7.184;2023-09-30T04:57:01;14.00;99.90
7399;DHT22;3740;50.700;7.184;2023-09-30T04:59:27;13.90;99.90
7399;DHT22;3740;50.700;7.184;2023-09-30T05:01:53;13.90;99.90
7399;DHT22;3740;50.700;7.184;2023-09-30T05:04:20;13.90;99.90
7399;DHT22;3740;50.700;7.184;2023-09-30T05:06:45;13.90;99.90
7399;DHT22;3740;50.700;7.184;2023-09-30T05:09:11;13.80;99.90
7399;DHT22;3740;50.700;7.184;2023-09-30T05:11:37;13.80;99.90
7399;DHT22;3740;50.700;7.184;2023-09-30T05:14:03;13.80;99.90
7399;DHT22;3740;50.700;7.184;2023-09-30T05:16:30;13.70;99.90
7399;DHT22;3740;50.700;7.184;2023-09-30T05:18:57;13.80;99.90
7399;DHT22;3740;50.700;7.184;2023-09-30T05:21:22;13.70;99.90
7399;DHT22;3740;50.700;7.184;2023-09-30T05:23:48;13.80;99.90
7399;DHT22;3740;50.700;7.184;2023-09-30T05:26:15;13.90;99.90
7399;DHT22;3740;50.700;7.184;2023-09-30T05:28:40;13.90;99.90
7399;DHT22;3740;50.700;7.184;2023-09-30T05:31:07;13.90;99.90
7399;DHT22;3740;50.700;7.184;2023-09-30T05:33:32;14.00;99.90
7399;DHT22;3740;50.700;7.184;2023-09-30T05:35:58;14.10;99.90
7399;DHT22;3740;50.700;7.184;2023-09-30T05:38:25;14.20;99.90
7399;DHT22;3740;50.700;7.184;2023-09-30T05:40:52;14.30;99.90
7399;DHT22;3740;50.700;7.184;2023-09-30T05:43:18;14.20;99.90
7399;DHT22;3740;50.700;7.184;2023-09-30T05:45:44;14.30;99.90
7399;DHT22;3740;50.700;7.184;2023-09-30T05:48:15;14.40;99.90
7399;DHT22;3740;50.700;7.184;2023-09-30T05:50:41;14.40;99.90
7399;DHT22;3740;50.700;7.184;2023-09-30T05:53:09;14.50;99.90
7399;DHT22;3740;50.700;7.184;2023-09-30T05:55:36;14.50;99.90
7399;DHT22;3740;50.700;7.184;2023-09-30T05:58:02;14.50;99.90
7399;DHT22;3740;50.700;7.184;2023-09-30T06:00:28;14.50;99.90
7399;DHT22;3740;50.700;7.184;2023-09-30T06:02:56;14.60;99.90
7399;DHT22;3740;50.700;7.184;2023-09-30T06:05:22;14.60;99.90
7399;DHT22;3740;50.700;7.184;2023-09-30T06:07:51;14.60;99.90
7399;DHT22;3740;50.700;7.184;2023-09-30T06:10:17;14.60;99.90
7399;DHT22;3740;50.700;7.184;2023-09-30T06:12:50;14.60;99.90
7399;DHT22;3740;50.700;7.184;2023-09-30T06:15:20;14.60;99.90
7399;DHT22;3740;50.700;7.184;2023-09-30T06:17:50;14.60;99.90
7399;DHT22;3740;50.700;7.184;2023-09-30T06:20:17;14.60;99.90
7399;DHT22;3740;50.700;7.184;2023-09-30T06:22:44;14.70;99.90
7399;DHT22;3740;50.700;7.184;2023-09-30T06:25:15;14.60;99.90
7399;DHT22;3740;50.700;7.184;2023-09-30T06:27:45;14.50;99.90
7399;DHT22;3740;50.700;7.184;2023-09-30T06:30:12;14.50;99.90
7399;DHT22;3740;50.700;7.184;2023-09-30T06:32:38;14.50;99.90
7399;DHT22;3740;50.700;7.184;2023-09-30T06:35:05;14.50;99.90
7399;DHT22;3740;50.700;7.184;2023-09-30T06:37:32;14.60;99.90
7399;DHT22;3740;50.700;7.184;2023-09-30T06:39:58;14.60;99.90
7399;DHT22;3740;50.700;7.184;2023-09-30T06:42:24;14.60;99.90
7399;DHT22;3740;50.700;7.184;2023-09-30T06:44:50;14.60;99.90
7399;DHT22;3740;50.700;7.184;2023-09-30T06:47:15;14.60;99.90
7399;DHT22;3740;50.700;7.184;2023-09-30T06:49:41;14.60;99.90
7399;DHT22;3740;50.700;7.184;2023-09-30T06:52:07;14.60;99.90
7399;DHT22;3740;50.700;7.184;2023-09-30T06:54:32;14.50;99.90
7399;DHT22;3740;50.700;7.184;2023-09-30T06:56:59;14.50;99.90
7399;DHT22;3740;50.700;7.184;2023-09-30T06:59:25;14.50;99.90
7399;DHT22;3740;50.700;7.184;2023-09-30T07:01:51;14.40;99.90
7399;DHT22;3740;50.700;7.184;2023-09-30T07:04:17;14.40;99.90
7399;DHT22;3740;50.700;7.184;2023-09-30T07:06:42;14.40;99.90
7399;DHT22;3740;50.700;7.184;2023-09-30T07:09:08;14.50;99.90
7399;DHT22;3740;50.700;7.184;2023-09-30T07:11:36;14.50;99.90
7399;DHT22;3740;50.700;7.184;2023-09-30T07:14:01;14.40;99.90
7399;DHT22;3740;50.700;7.184;2023-09-30T07:16:27;14.50;99.90
7399;DHT22;3740;50.700;7.184;2023-09-30T07:18:53;14.50;99.90
7399;DHT22;3740;50.700;7.184;2023-09-30T07:21:18;14.50;99.90
7399;DHT22;3740;50.700;7.184;2023-09-30T07:23:44;14.50;99.90
7399;DHT22;3740;50.700;7.184;2023-09-30T07:26:09;14.50;99.90
7399;DHT22;3740;50.700;7.184;2023-09-30T07:28:35;14.50;99.90
7399;DHT22;3740;50.700;7.184;2023-09-30T07:31:00;14.50;99.90
7399;DHT22;3740;50.700;7.184;2023-09-30T07:33:26;14.60;99.90
7399;DHT22;3740;50.700;7.184;2023-09-30T07:35:52;14.70;99.90
7399;DHT22;3740;50.700;7.184;2023-09-30T07:38:17;14.90;99.90
7399;DHT22;3740;50.700;7.184;2023-09-30T07:40:43;14.90;99.90
7399;DHT22;3740;50.700;7.184;2023-09-30T07:43:10;15.00;99.90
7399;DHT22;3740;50.700;7.184;2023-09-30T07:45:38;15.10;99.90
7399;DHT22;3740;50.700;7.184;2023-09-30T07:48:03;15.20;99.90
7399;DHT22;3740;50.700;7.184;2023-09-30T07:50:30;15.20;99.90
7399;DHT22;3740;50.700;7.184;2023-09-30T07:52:56;15.20;99.90
7399;DHT22;3740;50.700;7.184;2023-09-30T07:55:21;15.40;99.90
7399;DHT22;3740;50.700;7.184;2023-09-30T07:57:47;15.40;99.90
7399;DHT22;3740;50.700;7.184;2023-09-30T08:00:13;15.40;99.90
7399;DHT22;3740;50.700;7.184;2023-09-30T08:02:42;15.60;99.90
7399;DHT22;3740;50.700;7.184;2023-09-30T08:05:09;15.70;99.90
7399;DHT22;3740;50.700;7.184;2023-09-30T08:07:34;15.70;99.90
7399;DHT22;3740;50.700;7.184;2023-09-30T08:10:00;15.80;99.90
7399;DHT22;3740;50.700;7.184;2023-09-30T08:12:26;15.90;99.90
7399;DHT22;3740;50.700;7.184;2023-09-30T08:14:52;15.80;99.90
7399;DHT22;3740;50.700;7.184;2023-09-30T08:17:17;15.70;99.90
7399;DHT22;3740;50.700;7.184;2023-09-30T08:19:46;15.70;99.90
7399;DHT22;3740;50.700;7.184;2023-09-30T08:22:13;15.70;99.90
7399;DHT22;3740;50.700;7.184;2023-09-30T08:24:39;15.60;99.90
7399;DHT22;3740;50.700;7.184;2023-09-30T08:27:05;15.40;99.90
7399;DHT22;3740;50.700;7.184;2023-09-30T08:29:34;15.40;99.90
7399;DHT22;3740;50.700;7.184;2023-09-30T08:32:01;15.30;99.90
7399;DHT22;3740;50.700;7.184;2023-09-30T08:34:28;15.30;99.90
7399;DHT22;3740;50.700;7.184;2023-09-30T08:36:54;15.20;99.90
7399;DHT22;3740;50.700;7.184;2023-09-30T08:39:20;15.20;99.90
7399;DHT22;3740;50.700;7.184;2023-09-30T08:41:46;15.30;99.90
7399;DHT22;3740;50.700;7.184;2023-09-30T08:44:11;15.30;99.90
7399;DHT22;3740;50.700;7.184;2023-09-30T08:46:39;15.30;99.90
7399;DHT22;3740;50.700;7.184;2023-09-30T08:49:05;15.40;99.90
7399;DHT22;3740;50.700;7.184;2023-09-30T08:51:34;15.40;99.90
7399;DHT22;3740;50.700;7.184;2023-09-30T08:54:01;15.40;99.90
7399;DHT22;3740;50.700;7.184;2023-09-30T08:56:31;15.50;99.90
7399;DHT22;3740;50.700;7.184;2023-09-30T08:59:02;15.60;99.90
7399;DHT22;3740;50.700;7.184;2023-09-30T09:01:29;15.70;99.90
7399;DHT22;3740;50.700;7.184;2023-09-30T09:03:55;15.70;99.90
7399;DHT22;3740;50.700;7.184;2023-09-30T09:06:22;15.70;99.90
7399;DHT22;3740;50.700;7.184;2023-09-30T09:08:48;15.80;99.90
7399;DHT22;3740;50.700;7.184;2023-09-30T09:11:14;15.90;99.90
7399;DHT22;3740;50.700;7.184;2023-09-30T09:13:53;15.90;99.90
7399;DHT22;3740;50.700;7.184;2023-09-30T09:16:22;16.10;99.90
7399;DHT22;3740;50.700;7.184;2023-09-30T09:18:48;16.20;99.90
7399;DHT22;3740;50.700;7.184;2023-09-30T09:21:16;16.30;99.90
7399;DHT22;3740;50.700;7.184;2023-09-30T09:23:47;16.40;99.90
7399;DHT22;3740;50.700;7.184;2023-09-30T09:26:30;16.40;99.90
7399;DHT22;3740;50.700;7.184;2023-09-30T09:28:58;16.50;99.90
7399;DHT22;3740;50.700;7.184;2023-09-30T09:31:28;16.60;99.90
7399;DHT22;3740;50.700;7.184;2023-09-30T09:33:54;16.60;99.90
7399;DHT22;3740;50.700;7.184;2023-09-30T09:36:20;16.60;99.90
7399;DHT22;3740;50.700;7.184;2023-09-30T09:38:50;16.70;99.90
7399;DHT22;3740;50.700;7.184;2023-09-30T09:41:19;16.80;99.90
7399;DHT22;3740;50.700;7.184;2023-09-30T09:43:49;16.70;99.90
7399;DHT22;3740;50.700;7.184;2023-09-30T09:46:17;16.80;99.90
7399;DHT22;3740;50.700;7.184;2023-09-30T09:48:45;16.80;99.90
7399;DHT22;3740;50.700;7.184;2023-09-30T09:51:12;16.90;99.90
7399;DHT22;3740;50.700;7.184;2023-09-30T09:53:39;17.10;99.90
7399;DHT22;3740;50.700;7.184;2023-09-30T09:56:08;17.20;99.90
7399;DHT22;3740;50.700;7.184;2023-09-30T09:58:36;17.40;99.90
7399;DHT22;3740;50.700;7.184;2023-09-30T10:01:05;17.60;99.90
7399;DHT22;3740;50.700;7.184;2023-09-30T10:03:31;17.70;99.90
7399;DHT22;3740;50.700;7.184;2023-09-30T10:05:58;17.80;99.90
7399;DHT22;3740;50.700;7.184;2023-09-30T10:08:31;17.90;99.90
7399;DHT22;3740;50.700;7.184;2023-09-30T10:10:58;18.00;99.90
7399;DHT22;3740;50.700;7.184;2023-09-30T10:16:49;18.50;99.90
7399;DHT22;3740;50.700;7.184;2023-09-30T10:19:19;19.50;99.90
7399;DHT22;3740;50.700;7.184;2023-09-30T10:25:32;24.50;99.90
7399;DHT22;3740;50.700;7.184;2023-09-30T10:27:51;27.00;99.90
7399;DHT22;3740;50.700;7.184;2023-09-30T10:30:17;28.70;99.90
7399;DHT22;3740;50.700;7.184;2023-09-30T10:35:45;31.30;95.60
7399;DHT22;3740;50.700;7.184;2023-09-30T10:40:50;33.30;79.90
7399;DHT22;3740;50.700;7.184;2023-09-30T10:43:38;33.60;79.30
7399;DHT22;3740;50.700;7.184;2023-09-30T10:48:52;34.00;65.30
7399;DHT22;3740;50.700;7.184;2023-09-30T10:51:19;34.40;67.60
7399;DHT22;3740;50.700;7.184;2023-09-30T10:53:50;34.70;62.40
7399;DHT22;3740;50.700;7.184;2023-09-30T10:56:18;34.30;60.20
7399;DHT22;3740;50.700;7.184;2023-09-30T10:58:47;33.90;59.90
7399;DHT22;3740;50.700;7.184;2023-09-30T11:01:18;34.20;62.30
7399;DHT22;3740;50.700;7.184;2023-09-30T11:03:45;34.40;58.60
7399;DHT22;3740;50.700;7.184;2023-09-30T11:06:15;34.50;58.40
7399;DHT22;3740;50.700;7.184;2023-09-30T11:08:53;34.30;58.00
7399;DHT22;3740;50.700;7.184;2023-09-30T11:11:19;32.30;59.60
7399;DHT22;3740;50.700;7.184;2023-09-30T11:13:45;31.90;62.50
7399;DHT22;3740;50.700;7.184;2023-09-30T11:16:11;31.50;64.10
7399;DHT22;3740;50.700;7.184;2023-09-30T11:18:36;31.90;66.10
7399;DHT22;3740;50.700;7.184;2023-09-30T11:21:07;31.70;64.20
7399;DHT22;3740;50.700;7.184;2023-09-30T11:23:33;31.20;63.60
7399;DHT22;3740;50.700;7.184;2023-09-30T11:25:59;30.10;69.30
7399;DHT22;3740;50.700;7.184;2023-09-30T11:28:25;29.00;76.90
7399;DHT22;3740;50.700;7.184;2023-09-30T11:30:59;28.30;76.10
7399;DHT22;3740;50.700;7.184;2023-09-30T11:33:26;27.30;76.70
7399;DHT22;3740;50.700;7.184;2023-09-30T11:38:24;25.90;89.10
7399;DHT22;3740;50.700;7.184;2023-09-30T11:41:02;25.20;92.80
7399;DHT22;3740;50.700;7.184;2023-09-30T11:43:30;23.80;94.10
7399;DHT22;3740;50.700;7.184;2023-09-30T11:46:11;23.70;96.10
7399;DHT22;3740;50.700;7.184;2023-09-30T11:48:55;23.90;95.80
7399;DHT22;3740;50.700;7.184;2023-09-30T11:51:22;24.10;97.20
7399;DHT22;3740;50.700;7.184;2023-09-30T11:53:50;24.30;95.00
7399;DHT22;3740;50.700;7.184;2023-09-30T11:56:16;24.20;96.40
7399;DHT22;3740;50.700;7.184;2023-09-30T11:58:41;24.60;97.70
7399;DHT22;3740;50.700;7.184;2023-09-30T12:01:07;24.60;94.10
7399;DHT22;3740;50.700;7.184;2023-09-30T12:03:33;24.40;94.90
7399;DHT22;3740;50.700;7.184;2023-09-30T12:06:05;23.70;95.70
7399;DHT22;3740;50.700;7.184;2023-09-30T12:08:30;23.40;96.70
7399;DHT22;3740;50.700;7.184;2023-09-30T12:10:57;23.60;97.10
7399;DHT22;3740;50.700;7.184;2023-09-30T12:13:25;23.40;97.30
7399;DHT22;3740;50.700;7.184;2023-09-30T12:15:50;23.60;97.10
7399;DHT22;3740;50.700;7.184;2023-09-30T12:18:18;23.40;98.10
7399;DHT22;3740;50.700;7.184;2023-09-30T12:20:49;23.60;98.10
7399;DHT22;3740;50.700;7.184;2023-09-30T12:23:15;23.90;99.30
7399;DHT22;3740;50.700;7.184;2023-09-30T12:25:40;24.10;97.90
7399;DHT22;3740;50.700;7.184;2023-09-30T12:28:06;23.60;96.10
7399;DHT22;3740;50.700;7.184;2023-09-30T12:30:31;23.50;96.60
7399;DHT22;3740;50.700;7.184;2023-09-30T12:32:57;23.80;99.20
7399;DHT22;3740;50.700;7.184;2023-09-30T12:35:23;23.80;99.80
7399;DHT22;3740;50.700;7.184;2023-09-30T12:37:49;23.80;99.90
7399;DHT22;3740;50.700;7.184;2023-09-30T12:40:14;24.00;99.90
7399;DHT22;3740;50.700;7.184;2023-09-30T12:42:43;24.10;93.80
7399;DHT22;3740;50.700;7.184;2023-09-30T12:45:10;23.90;94.30
7399;DHT22;3740;50.700;7.184;2023-09-30T12:47:36;23.60;93.70
7399;DHT22;3740;50.700;7.184;2023-09-30T12:50:02;23.30;92.40
7399;DHT22;3740;50.700;7.184;2023-09-30T12:52:28;23.10;96.00
7399;DHT22;3740;50.700;7.184;2023-09-30T12:54:55;22.90;96.70
7399;DHT22;3740;50.700;7.184;2023-09-30T12:57:21;22.80;97.40
7399;DHT22;3740;50.700;7.184;2023-09-30T12:59:47;23.00;94.70
7399;DHT22;3740;50.700;7.184;2023-09-30T13:02:14;22.90;96.80
7399;DHT22;3740;50.700;7.184;2023-09-30T13:04:40;22.80;96.30
7399;DHT22;3740;50.700;7.184;2023-09-30T13:07:12;22.90;99.90
7399;DHT22;3740;50.700;7.184;2023-09-30T13:09:41;22.60;99.90
7399;DHT22;3740;50.700;7.184;2023-09-30T13:12:07;22.40;99.90
7399;DHT22;3740;50.700;7.184;2023-09-30T13:14:33;22.40;99.90
7399;DHT22;3740;50.700;7.184;2023-09-30T13:17:18;21.90;99.90
7399;DHT22;3740;50.700;7.184;2023-09-30T13:20:04;21.70;99.90
7399;DHT22;3740;50.700;7.184;2023-09-30T13:22:50;21.70;99.90
7399;DHT22;3740;50.700;7.184;2023-09-30T13:25:36;22.00;99.90
7399;DHT22;3740;50.700;7.184;2023-09-30T13:28:22;22.20;99.90
7399;DHT22;3740;50.700;7.184;2023-09-30T13:31:08;22.40;99.90
7399;DHT22;3740;50.700;7.184;2023-09-30T13:33:54;22.30;99.90
7399;DHT22;3740;50.700;7.184;2023-09-30T13:36:40;22.00;99.90
7399;DHT22;3740;50.700;7.184;2023-09-30T13:39:26;22.10;99.90
7399;DHT22;3740;50.700;7.184;2023-09-30T13:42:12;21.90;99.90
7399;DHT22;3740;50.700;7.184;2023-09-30T13:44:57;22.10;99.20
7399;DHT22;3740;50.700;7.184;2023-09-30T13:47:43;22.20;99.90
7399;DHT22;3740;50.700;7.184;2023-09-30T13:50:29;21.90;99.90
7399;DHT22;3740;50.700;7.184;2023-09-30T13:53:15;21.70;99.90
7399;DHT22;3740;50.700;7.184;2023-09-30T13:56:01;21.60;99.90
7399;DHT22;3740;50.700;7.184;2023-09-30T13:58:49;21.80;99.90
7399;DHT22;3740;50.700;7.184;2023-09-30T14:01:35;22.00;99.90
7399;DHT22;3740;50.700;7.184;2023-09-30T14:04:21;22.20;99.90
7399;DHT22;3740;50.700;7.184;2023-09-30T14:07:07;22.20;99.90
7399;DHT22;3740;50.700;7.184;2023-09-30T14:09:53;22.30;99.90
7399;DHT22;3740;50.700;7.184;2023-09-30T14:12:39;22.40;99.90
7399;DHT22;3740;50.700;7.184;2023-09-30T14:15:25;22.40;99.90
7399;DHT22;3740;50.700;7.184;2023-09-30T14:18:13;22.30;99.90
7399;DHT22;3740;50.700;7.184;2023-09-30T14:21:00;22.20;99.90
7399;DHT22;3740;50.700;7.184;2023-09-30T14:23:46;22.10;99.90
7399;DHT22;3740;50.700;7.184;2023-09-30T14:26:33;22.00;99.90
7399;DHT22;3740;50.700;7.184;2023-09-30T14:29:19;21.80;99.90
7399;DHT22;3740;50.700;7.184;2023-09-30T14:32:05;21.60;99.90
7399;DHT22;3740;50.700;7.184;2023-09-30T14:34:52;21.40;99.90
7399;DHT22;3740;50.700;7.184;2023-09-30T14:37:38;21.40;99.90
7399;DHT22;3740;50.700;7.184;2023-09-30T14:40:24;21.40;99.90
7399;DHT22;3740;50.700;7.184;2023-09-30T14:43:10;21.30;99.90
7399;DHT22;3740;50.700;7.184;2023-09-30T14:45:56;21.30;99.90
7399;DHT22;3740;50.700;7.184;2023-09-30T14:48:42;21.20;99.90
7399;DHT22;3740;50.700;7.184;2023-09-30T14:51:29;21.20;99.90
7399;DHT22;3740;50.700;7.184;2023-09-30T14:54:15;21.20;99.90
7399;DHT22;3740;50.700;7.184;2023-09-30T14:57:01;21.10;99.90
7399;DHT22;3740;50.700;7.184;2023-09-30T14:59:47;21.10;99.90
7399;DHT22;3740;50.700;7.184;2023-09-30T15:02:33;21.00;99.90
7399;DHT22;3740;50.700;7.184;2023-09-30T15:05:19;20.90;99.90
7399;DHT22;3740;50.700;7.184;2023-09-30T15:08:04;20.90;99.90
7399;DHT22;3740;50.700;7.184;2023-09-30T15:10:51;20.90;99.90
7399;DHT22;3740;50.700;7.184;2023-09-30T15:13:37;20.80;99.90
7399;DHT22;3740;50.700;7.184;2023-09-30T15:16:23;20.80;99.90
7399;DHT22;3740;50.700;7.184;2023-09-30T15:19:10;20.70;99.90
7399;DHT22;3740;50.700;7.184;2023-09-30T15:21:56;20.60;99.90
7399;DHT22;3740;50.700;7.184;2023-09-30T15:24:43;20.50;99.90
7399;DHT22;3740;50.700;7.184;2023-09-30T15:27:29;20.40;99.90
7399;DHT22;3740;50.700;7.184;2023-09-30T15:30:15;20.30;99.90
7399;DHT22;3740;50.700;7.184;2023-09-30T15:33:01;20.30;99.90
7399;DHT22;3740;50.700;7.184;2023-09-30T15:35:48;20.20;99.90
7399;DHT22;3740;50.700;7.184;2023-09-30T15:38:34;20.20;99.90
7399;DHT22;3740;50.700;7.184;2023-09-30T15:41:23;20.00;99.90
7399;DHT22;3740;50.700;7.184;2023-09-30T15:44:09;20.00;99.90
7399;DHT22;3740;50.700;7.184;2023-09-30T15:46:55;20.00;99.90
7399;DHT22;3740;50.700;7.184;2023-09-30T15:49:41;19.90;99.90
7399;DHT22;3740;50.700;7.184;2023-09-30T15:52:27;19.90;99.90
7399;DHT22;3740;50.700;7.184;2023-09-30T15:55:13;19.80;99.90
7399;DHT22;3740;50.700;7.184;2023-09-30T15:57:59;19.80;99.90
7399;DHT22;3740;50.700;7.184;2023-09-30T16:00:45;19.70;99.90
7399;DHT22;3740;50.700;7.184;2023-09-30T16:03:34;19.70;99.90
7399;DHT22;3740;50.700;7.184;2023-09-30T16:06:20;19.70;99.90
7399;DHT22;3740;50.700;7.184;2023-09-30T16:09:06;19.60;99.90
7399;DHT22;3740;50.700;7.184;2023-09-30T16:11:52;19.60;99.90
7399;DHT22;3740;50.700;7.184;2023-09-30T16:14:38;19.50;99.90
7399;DHT22;3740;50.700;7.184;2023-09-30T16:17:23;19.50;99.90
7399;DHT22;3740;50.700;7.184;2023-09-30T16:20:10;20.20;99.90
7399;DHT22;3740;50.700;7.184;2023-09-30T16:22:56;19.40;99.90
7399;DHT22;3740;50.700;7.184;2023-09-30T16:25:42;19.30;99.90
7399;DHT22;3740;50.700;7.184;2023-09-30T16:28:28;19.30;99.90
7399;DHT22;3740;50.700;7.184;2023-09-30T16:31:14;19.30;99.90
7399;DHT22;3740;50.700;7.184;2023-09-30T16:34:00;19.20;99.90
7399;DHT22;3740;50.700;7.184;2023-09-30T16:36:46;19.10;99.90
7399;DHT22;3740;50.700;7.184;2023-09-30T16:39:32;19.10;99.90
7399;DHT22;3740;50.700;7.184;2023-09-30T16:42:18;19.00;99.90